Time;durP1;ratioP1;P1;durP2;ratioP2;P2;SDS_P1;SDS_P2;PMS_P1;PMS_P2;Temp;Humidity;BMP_temperature;BMP_pressure;BME280_temperature;BME280_humidity;BME280_pressure;Samples;Min_cycle;Max_cycle;Signal;HPM_P1;HPM_P2
2022/06/26 00:00:37;;;;;;;5.30;4.93;;;;;;;;;;2050445;28;20171;-54
2022/06/26 00:01:38;;;;;;;5.10;4.70;;;;;;;;;;2050468;29;20186;-56
2022/06/26 00:02:38;;;;;;;5.25;4.85;;;;;;;;;;2058084;28;20162;-54
2022/06/26 00:03:39;;;;;;;5.10;4.70;;;;;;;;;;2057817;28;20178;-53
2022/06/26 00:04:39;;;;;;;5.55;5.00;;;;;;;;;;2049841;28;20175;-54
2022/06/26 00:05:39;;;;;;;4.90;4.60;;;;;;;;;;2058391;28;20170;-54
2022/06/26 00:06:40;;;;;;;5.38;4.88;;;;;;;;;;2058297;28;20624;-54
2022/06/26 00:07:40;;;;;;;5.90;5.25;;;;;;;;;;2054844;28;20506;-54
2022/06/26 00:08:41;;;;;;;4.88;4.47;;;;;;;;;;2047838;29;20222;-53
2022/06/26 00:09:41;;;;;;;5.30;5.00;;;;;;;;;;2044936;28;20215;-51
2022/06/26 00:10:42;;;;;;;5.75;5.35;;;;;;;;;;2042326;29;20167;-53
2022/06/26 00:11:42;;;;;;;6.22;5.65;;;;;;;;;;2048480;29;20273;-52
2022/06/26 00:12:42;;;;;;;5.35;4.95;;;;;;;;;;2058072;28;20174;-55
2022/06/26 00:13:43;;;;;;;5.20;4.90;;;;;;;;;;2058002;28;20189;-52
2022/06/26 00:14:43;;;;;;;5.47;5.10;;;;;;;;;;2053588;28;20163;-53
2022/06/26 00:15:44;;;;;;;5.70;5.30;;;;;;;;;;2053368;28;20217;-54
2022/06/26 00:16:44;;;;;;;5.60;5.20;;;;;;;;;;2049146;29;20641;-54
2022/06/26 00:17:44;;;;;;;5.60;5.13;;;;;;;;;;2045761;29;20178;-51
2022/06/26 00:18:45;;;;;;;5.30;5.00;;;;;;;;;;2047352;29;20325;-53
2022/06/26 00:19:45;;;;;;;5.78;5.38;;;;;;;;;;2049993;29;20171;-52
2022/06/26 00:20:45;;;;;;;6.00;5.53;;;;;;;;;;2051682;29;20175;-55
2022/06/26 00:21:46;;;;;;;6.65;5.68;;;;;;;;;;2059181;28;20200;-56
2022/06/26 00:22:47;;;;;;;6.28;5.50;;;;;;;;;;2058504;28;20624;-56
2022/06/26 00:23:47;;;;;;;5.57;4.90;;;;;;;;;;2050979;28;20242;-58
2022/06/26 00:24:47;;;;;;;5.90;5.40;;;;;;;;;;2049851;28;20258;-56
2022/06/26 00:25:48;;;;;;;6.00;5.60;;;;;;;;;;2050413;29;20182;-55
2022/06/26 00:26:48;;;;;;;5.65;5.10;;;;;;;;;;2052221;28;20182;-57
2022/06/26 00:27:48;;;;;;;5.38;5.03;;;;;;;;;;2052241;28;20312;-53
2022/06/26 00:28:49;;;;;;;6.63;6.13;;;;;;;;;;2050553;29;20219;-54
2022/06/26 00:29:49;;;;;;;5.72;5.35;;;;;;;;;;2051191;28;20178;-53
2022/06/26 00:30:49;;;;;;;6.30;5.63;;;;;;;;;;2050706;28;20261;-54
2022/06/26 00:31:50;;;;;;;6.05;5.55;;;;;;;;;;2049843;29;20349;-52
2022/06/26 00:32:50;;;;;;;6.53;5.95;;;;;;;;;;2049227;29;20254;-54
2022/06/26 00:33:50;;;;;;;6.45;6.05;;;;;;;;;;2049624;29;20189;-55
2022/06/26 00:34:51;;;;;;;6.43;6.03;;;;;;;;;;2048494;29;20210;-54
2022/06/26 00:35:51;;;;;;;7.60;6.82;;;;;;;;;;2057066;28;20680;-50
2022/06/26 00:36:51;;;;;;;6.72;6.30;;;;;;;;;;2057249;28;20190;-55
2022/06/26 00:37:52;;;;;;;7.85;7.00;;;;;;;;;;2049610;28;20639;-55
2022/06/26 00:38:52;;;;;;;7.53;6.95;;;;;;;;;;2049687;28;20183;-56
2022/06/26 00:39:52;;;;;;;7.55;6.90;;;;;;;;;;2050054;28;20198;-53
2022/06/26 00:40:53;;;;;;;7.00;6.47;;;;;;;;;;2050001;28;20647;-54
2022/06/26 00:41:53;;;;;;;7.97;7.28;;;;;;;;;;2048869;28;20667;-56
2022/06/26 00:42:54;;;;;;;7.25;6.72;;;;;;;;;;2046126;29;20182;-52
2022/06/26 00:43:54;;;;;;;7.40;6.88;;;;;;;;;;2041619;29;20187;-54
2022/06/26 00:44:56;;;;;;;7.82;7.10;;;;;;;;;;2054237;28;20179;-55
2022/06/26 00:45:56;;;;;;;7.28;6.68;;;;;;;;;;2057813;28;20194;-53
2022/06/26 00:46:56;;;;;;;7.47;6.88;;;;;;;;;;2050517;28;20202;-52
2022/06/26 00:47:57;;;;;;;6.88;6.35;;;;;;;;;;2050945;28;20174;-56
2022/06/26 00:48:58;;;;;;;7.60;7.00;;;;;;;;;;2050503;28;20174;-54
2022/06/26 00:49:58;;;;;;;7.10;6.47;;;;;;;;;;2050370;29;20173;-52
2022/06/26 00:50:59;;;;;;;6.97;6.40;;;;;;;;;;2057832;28;20260;-55
2022/06/26 00:52:00;;;;;;;8.20;7.50;;;;;;;;;;2049878;29;20210;-54
2022/06/26 00:53:00;;;;;;;6.93;6.32;;;;;;;;;;2048797;28;20179;-52
2022/06/26 00:54:01;;;;;;;7.32;6.72;;;;;;;;;;2056197;28;20166;-54
2022/06/26 00:55:02;;;;;;;7.93;7.30;;;;;;;;;;2056404;28;20170;-54
2022/06/26 00:56:03;;;;;;;8.20;7.60;;;;;;;;;;2057316;28;20207;-55
2022/06/26 00:57:03;;;;;;;7.80;7.20;;;;;;;;;;2056827;28;20170;-55
2022/06/26 00:58:04;;;;;;;7.78;7.28;;;;;;;;;;2048618;29;20668;-54
2022/06/26 00:59:04;;;;;;;8.25;7.55;;;;;;;;;;2048774;29;20573;-54
2022/06/26 01:00:05;;;;;;;8.48;7.78;;;;;;;;;;2049664;29;20175;-54
2022/06/26 01:01:06;;;;;;;9.52;8.57;;;;;;;;;;2056847;28;20229;-56
2022/06/26 01:02:06;;;;;;;9.50;8.68;;;;;;;;;;2057102;28;20213;-52
2022/06/26 01:03:07;;;;;;;8.52;7.93;;;;;;;;;;2049439;28;20179;-52
2022/06/26 01:04:08;;;;;;;14.35;13.15;;;;;;;;;;2048834;28;20171;-55
2022/06/26 01:05:09;;;;;;;10.65;9.55;;;;;;;;;;2057164;28;20174;-57
2022/06/26 01:06:09;;;;;;;9.63;8.82;;;;;;;;;;2057153;28;20273;-54
2022/06/26 01:07:11;;;;;;;8.27;7.68;;;;;;;;;;2056515;28;20181;-57
2022/06/26 01:08:11;;;;;;;10.38;9.48;;;;;;;;;;2054498;28;20208;-52
2022/06/26 01:09:12;;;;;;;8.65;7.97;;;;;;;;;;2048516;28;20163;-52
2022/06/26 01:10:12;;;;;;;9.05;8.35;;;;;;;;;;2044404;29;20237;-53
2022/06/26 01:11:20;;;;;;;8.57;7.85;;;;;;;;;;2056396;28;20585;-51
2022/06/26 01:12:21;;;;;;;8.57;7.97;;;;;;;;;;2056648;28;20220;-52
2022/06/26 01:13:22;;;;;;;9.40;8.63;;;;;;;;;;2046188;29;20179;-56
2022/06/26 01:14:23;;;;;;;9.15;8.35;;;;;;;;;;2047646;29;20183;-55
2022/06/26 01:15:26;;;;;;;10.30;9.48;;;;;;;;;;2048647;29;20297;-51
2022/06/26 01:16:27;;;;;;;8.55;7.88;;;;;;;;;;2048342;28;20174;-57
2022/06/26 01:17:29;;;;;;;9.38;8.57;;;;;;;;;;2048523;29;20207;-57
2022/06/26 01:18:29;;;;;;;8.93;8.15;;;;;;;;;;2048447;29;20187;-52
2022/06/26 01:19:30;;;;;;;8.80;8.10;;;;;;;;;;2056301;28;20174;-54
2022/06/26 01:20:30;;;;;;;9.45;8.55;;;;;;;;;;2056479;28;20176;-54
2022/06/26 01:21:32;;;;;;;8.75;8.07;;;;;;;;;;2056600;28;20170;-55
2022/06/26 01:22:33;;;;;;;9.07;8.18;;;;;;;;;;2056291;28;20182;-53
2022/06/26 01:23:33;;;;;;;8.77;8.05;;;;;;;;;;2048098;28;20799;-53
2022/06/26 01:24:34;;;;;;;8.88;8.18;;;;;;;;;;2039618;29;20679;-53
2022/06/26 01:25:46;;;;;;;9.63;8.77;;;;;;;;;;2056135;28;20269;-52
2022/06/26 01:26:46;;;;;;;9.77;9.00;;;;;;;;;;2056401;28;20274;-54
2022/06/26 01:27:47;;;;;;;9.05;8.45;;;;;;;;;;2048484;28;20557;-53
2022/06/26 01:28:50;;;;;;;9.95;8.98;;;;;;;;;;2040677;29;20176;-54
2022/06/26 01:29:51;;;;;;;9.10;8.30;;;;;;;;;;2048374;28;20620;-55
2022/06/26 01:30:52;;;;;;;9.40;8.70;;;;;;;;;;2054783;28;20206;-56
2022/06/26 01:31:52;;;;;;;10.05;9.15;;;;;;;;;;2048551;28;20178;-54
2022/06/26 01:32:53;;;;;;;9.10;8.43;;;;;;;;;;2056397;28;20232;-53
2022/06/26 01:33:53;;;;;;;9.40;8.75;;;;;;;;;;2056098;28;20171;-55
2022/06/26 01:34:54;;;;;;;9.73;8.88;;;;;;;;;;2048106;28;20190;-53
2022/06/26 01:35:54;;;;;;;9.55;8.75;;;;;;;;;;2048500;28;20238;-54
2022/06/26 01:36:56;;;;;;;8.63;8.02;;;;;;;;;;2044151;29;20179;-57
2022/06/26 01:38:06;;;;;;;8.70;7.90;;;;;;;;;;2048030;28;20179;-54
2022/06/26 01:39:07;;;;;;;9.05;8.38;;;;;;;;;;2048692;28;20167;-54
2022/06/26 01:40:07;;;;;;;9.40;8.60;;;;;;;;;;2048406;29;20179;-53
2022/06/26 01:41:08;;;;;;;8.80;7.97;;;;;;;;;;2048391;28;20175;-51
2022/06/26 01:42:09;;;;;;;9.55;8.60;;;;;;;;;;2048631;28;20183;-56
2022/06/26 01:43:11;;;;;;;9.25;8.57;;;;;;;;;;2056062;28;20187;-55
2022/06/26 01:44:12;;;;;;;8.90;8.13;;;;;;;;;;2048204;28;20178;-53
2022/06/26 01:45:12;;;;;;;9.23;8.60;;;;;;;;;;2048265;28;20558;-55
2022/06/26 01:46:12;;;;;;;8.52;7.93;;;;;;;;;;2040627;29;20219;-53
2022/06/26 01:47:14;;;;;;;9.45;8.60;;;;;;;;;;2056298;28;20174;-56
2022/06/26 01:48:15;;;;;;;9.70;8.90;;;;;;;;;;2048403;28;20572;-55
2022/06/26 01:49:16;;;;;;;8.73;8.13;;;;;;;;;;2048307;28;20201;-52
2022/06/26 01:50:16;;;;;;;9.27;8.68;;;;;;;;;;2048386;28;20638;-54
2022/06/26 01:51:17;;;;;;;9.55;8.75;;;;;;;;;;2039678;29;20275;-56
2022/06/26 01:52:18;;;;;;;9.55;8.82;;;;;;;;;;2040651;29;20263;-55
2022/06/26 01:53:21;;;;;;;9.10;8.40;;;;;;;;;;2048576;28;20263;-55
2022/06/26 01:54:23;;;;;;;9.48;8.77;;;;;;;;;;2047304;28;20182;-54
2022/06/26 01:55:25;;;;;;;8.88;8.27;;;;;;;;;;2048346;28;20258;-57
2022/06/26 01:56:27;;;;;;;8.80;8.18;;;;;;;;;;2048466;28;20171;-51
2022/06/26 01:57:28;;;;;;;10.07;9.07;;;;;;;;;;2048443;28;20632;-55
2022/06/26 01:58:40;;;;;;;9.15;8.35;;;;;;;;;;2048429;28;20234;-54
2022/06/26 01:59:40;;;;;;;9.38;8.68;;;;;;;;;;2048048;28;20178;-50
2022/06/26 02:00:45;;;;;;;8.98;8.27;;;;;;;;;;2048053;28;20262;-54
2022/06/26 02:01:46;;;;;;;8.65;8.05;;;;;;;;;;2048212;28;20186;-54
2022/06/26 02:02:49;;;;;;;9.25;8.45;;;;;;;;;;2048317;28;20179;-51
2022/06/26 02:03:49;;;;;;;9.10;8.30;;;;;;;;;;2048267;28;20234;-52
2022/06/26 02:04:49;;;;;;;8.45;7.63;;;;;;;;;;2055247;28;20175;-56
2022/06/26 02:05:50;;;;;;;7.97;7.38;;;;;;;;;;2048406;28;20223;-55
2022/06/26 02:06:50;;;;;;;8.52;7.65;;;;;;;;;;2056355;28;20181;-54
2022/06/26 02:07:53;;;;;;;8.13;7.53;;;;;;;;;;2055812;28;20625;-56
2022/06/26 02:08:54;;;;;;;8.77;7.90;;;;;;;;;;2056100;28;20270;-55
2022/06/26 02:13:57;;;;;;;8.68;7.88;;;;;;;;;;2057167;28;20710;-57
2022/06/26 02:15:01;;;;;;;7.63;7.13;;;;;;;;;;2057429;28;20600;-55
2022/06/26 02:16:15;;;;;;;8.02;7.53;;;;;;;;;;2049640;28;20203;-53
2022/06/26 02:17:17;;;;;;;8.38;7.78;;;;;;;;;;2051582;28;20248;-53
2022/06/26 02:18:18;;;;;;;8.55;7.93;;;;;;;;;;2057344;28;20281;-54
2022/06/26 02:19:18;;;;;;;10.35;9.45;;;;;;;;;;2049786;28;20171;-52
2022/06/26 02:20:18;;;;;;;9.73;8.93;;;;;;;;;;2057537;28;20182;-56
2022/06/26 02:21:20;;;;;;;9.32;8.68;;;;;;;;;;2057679;28;20611;-51
2022/06/26 02:22:20;;;;;;;9.15;8.55;;;;;;;;;;2057585;28;20181;-57
2022/06/26 02:23:21;;;;;;;9.00;8.23;;;;;;;;;;2049311;28;20186;-52
2022/06/26 02:24:21;;;;;;;8.75;8.15;;;;;;;;;;2047496;28;20654;-51
2022/06/26 02:25:22;;;;;;;8.80;8.25;;;;;;;;;;2049535;29;20346;-54
2022/06/26 02:26:27;;;;;;;10.32;9.32;;;;;;;;;;2042113;29;20759;-54
2022/06/26 02:27:30;;;;;;;9.05;8.30;;;;;;;;;;2049892;28;20218;-52
2022/06/26 02:28:31;;;;;;;10.15;9.10;;;;;;;;;;2057355;28;20198;-57
2022/06/26 02:29:33;;;;;;;9.68;8.88;;;;;;;;;;2049544;28;20680;-54
2022/06/26 02:30:33;;;;;;;10.25;9.23;;;;;;;;;;2049272;29;20179;-55
2022/06/26 02:31:34;;;;;;;9.13;8.52;;;;;;;;;;2057404;28;20226;-51
2022/06/26 02:32:34;;;;;;;9.80;9.10;;;;;;;;;;2057162;28;20229;-50
2022/06/26 02:33:35;;;;;;;9.43;8.82;;;;;;;;;;2057718;28;20170;-52
2022/06/26 02:34:36;;;;;;;8.90;8.10;;;;;;;;;;2049357;28;20182;-54
2022/06/26 02:35:36;;;;;;;9.55;8.75;;;;;;;;;;2057339;28;20175;-53
2022/06/26 02:36:37;;;;;;;9.75;8.80;;;;;;;;;;2057549;28;20171;-52
2022/06/26 02:37:37;;;;;;;10.90;10.02;;;;;;;;;;2049328;28;20255;-52
2022/06/26 02:38:38;;;;;;;10.00;9.20;;;;;;;;;;2049435;28;20222;-53
2022/06/26 02:39:38;;;;;;;9.68;8.98;;;;;;;;;;2057291;28;20205;-55
2022/06/26 02:40:40;;;;;;;9.32;8.57;;;;;;;;;;2049637;28;20181;-59
2022/06/26 02:41:40;;;;;;;9.38;8.63;;;;;;;;;;2057322;28;20554;-53
2022/06/26 02:42:40;;;;;;;8.98;8.27;;;;;;;;;;2049970;28;20198;-51
2022/06/26 02:43:41;;;;;;;9.15;8.55;;;;;;;;;;2049950;29;20163;-53
2022/06/26 02:44:42;;;;;;;9.70;9.00;;;;;;;;;;2048330;29;20270;-54
2022/06/26 02:45:43;;;;;;;10.23;9.45;;;;;;;;;;2048933;28;20167;-53
2022/06/26 02:46:43;;;;;;;9.88;9.02;;;;;;;;;;2057436;28;20277;-55
2022/06/26 02:47:46;;;;;;;9.73;8.77;;;;;;;;;;2049318;28;20591;-56
2022/06/26 02:48:48;;;;;;;8.82;8.23;;;;;;;;;;2041743;28;20349;-56
2022/06/26 02:49:50;;;;;;;9.85;8.85;;;;;;;;;;2049365;28;20286;-55
2022/06/26 02:50:54;;;;;;;9.10;8.40;;;;;;;;;;2048704;29;20700;-54
2022/06/26 02:51:54;;;;;;;9.30;8.60;;;;;;;;;;2041388;29;20207;-55
2022/06/26 02:52:58;;;;;;;9.93;9.02;;;;;;;;;;2057380;28;20170;-51
2022/06/26 02:53:59;;;;;;;10.05;8.93;;;;;;;;;;2056255;28;20198;-53
2022/06/26 02:55:00;;;;;;;9.07;8.43;;;;;;;;;;2049186;29;20223;-56
2022/06/26 02:56:01;;;;;;;8.50;7.90;;;;;;;;;;2049214;28;20731;-54
2022/06/26 02:57:02;;;;;;;9.18;8.48;;;;;;;;;;2057349;28;20269;-53
2022/06/26 02:59:15;;;;;;;8.85;8.25;;;;;;;;;;2054084;28;20232;-58
2022/06/26 03:00:16;;;;;;;8.85;7.95;;;;;;;;;;2057650;28;20229;-58
2022/06/26 03:01:19;;;;;;;8.45;7.80;;;;;;;;;;2065914;28;20202;-58
2022/06/26 03:02:20;;;;;;;8.38;7.78;;;;;;;;;;2066370;28;20165;-56
2022/06/26 03:03:30;;;;;;;7.80;7.30;;;;;;;;;;2067427;28;20206;-58
2022/06/26 03:04:31;;;;;;;8.02;7.32;;;;;;;;;;2065209;28;20216;-61
2022/06/26 03:05:32;;;;;;;8.15;7.50;;;;;;;;;;2058290;28;20170;-61
2022/06/26 03:06:33;;;;;;;8.02;7.43;;;;;;;;;;2058088;28;20674;-60
2022/06/26 03:07:33;;;;;;;8.65;7.85;;;;;;;;;;2057559;28;20586;-60
2022/06/26 03:08:35;;;;;;;7.47;6.82;;;;;;;;;;2066468;28;20201;-60
2022/06/26 03:09:37;;;;;;;7.75;6.95;;;;;;;;;;2058537;28;20642;-58
2022/06/26 03:10:37;;;;;;;8.38;7.53;;;;;;;;;;2066021;28;20165;-58
2022/06/26 03:11:40;;;;;;;8.10;7.50;;;;;;;;;;2058137;28;20213;-56
2022/06/26 03:12:47;;;;;;;6.88;6.40;;;;;;;;;;2058356;28;20607;-57
2022/06/26 03:13:47;;;;;;;7.78;7.03;;;;;;;;;;2066068;28;20177;-57
2022/06/26 03:14:47;;;;;;;8.48;6.90;;;;;;;;;;2065717;28;20197;-58
2022/06/26 03:15:48;;;;;;;7.55;6.95;;;;;;;;;;2065420;28;20572;-60
2022/06/26 03:16:51;;;;;;;6.90;6.40;;;;;;;;;;2065600;28;20185;-59
2022/06/26 03:17:51;;;;;;;7.72;6.63;;;;;;;;;;2057503;28;20174;-59
2022/06/26 03:18:52;;;;;;;6.72;6.10;;;;;;;;;;2052846;28;20564;-60
2022/06/26 03:19:52;;;;;;;7.00;6.38;;;;;;;;;;2057478;28;20178;-57
2022/06/26 03:20:53;;;;;;;6.57;6.13;;;;;;;;;;2057680;28;20230;-60
2022/06/26 03:21:53;;;;;;;6.55;6.00;;;;;;;;;;2057551;28;20182;-56
2022/06/26 03:22:54;;;;;;;6.93;6.32;;;;;;;;;;2055074;28;20240;-56
2022/06/26 03:24:03;;;;;;;7.15;6.60;;;;;;;;;;2057223;28;20196;-58
2022/06/26 03:25:06;;;;;;;6.72;6.22;;;;;;;;;;2067032;28;20176;-59
2022/06/26 03:26:06;;;;;;;6.50;5.90;;;;;;;;;;2065880;28;20180;-59
2022/06/26 03:27:07;;;;;;;6.72;6.20;;;;;;;;;;2065524;28;20204;-60
2022/06/26 03:28:07;;;;;;;6.20;5.80;;;;;;;;;;2065542;28;20237;-58
2022/06/26 03:29:14;;;;;;;6.40;5.90;;;;;;;;;;2058962;28;20170;-59
2022/06/26 03:30:14;;;;;;;6.07;5.68;;;;;;;;;;2066468;28;20245;-60
2022/06/26 03:31:21;;;;;;;6.95;6.07;;;;;;;;;;2066295;28;20205;-59
2022/06/26 03:32:22;;;;;;;7.38;6.78;;;;;;;;;;2065416;28;20260;-59
2022/06/26 03:33:34;;;;;;;7.20;6.50;;;;;;;;;;2064779;28;20185;-59
2022/06/26 03:34:35;;;;;;;6.55;6.10;;;;;;;;;;2064335;28;20587;-59
2022/06/26 03:35:35;;;;;;;6.05;5.53;;;;;;;;;;2065548;28;20174;-61
2022/06/26 03:36:36;;;;;;;5.88;5.47;;;;;;;;;;2057468;28;20183;-60
2022/06/26 03:37:37;;;;;;;6.28;5.78;;;;;;;;;;2057210;28;20690;-59
2022/06/26 03:38:40;;;;;;;7.15;6.65;;;;;;;;;;2057322;28;20249;-60
2022/06/26 03:39:44;;;;;;;9.23;6.18;;;;;;;;;;2065194;28;20182;-54
2022/06/26 03:40:48;;;;;;;6.60;6.00;;;;;;;;;;2064795;28;20189;-56
2022/06/26 03:42:02;;;;;;;5.57;5.28;;;;;;;;;;2065099;28;20174;-58
2022/06/26 03:43:11;;;;;;;5.88;5.53;;;;;;;;;;2059243;28;20609;-61
2022/06/26 03:44:21;;;;;;;6.68;6.07;;;;;;;;;;2057462;28;20635;-57
2022/06/26 03:45:22;;;;;;;6.13;5.63;;;;;;;;;;2057162;28;20257;-59
2022/06/26 03:46:22;;;;;;;6.28;5.78;;;;;;;;;;2056576;28;20182;-58
2022/06/26 03:47:23;;;;;;;6.88;6.28;;;;;;;;;;2057171;28;20225;-58
2022/06/26 03:48:26;;;;;;;6.15;5.70;;;;;;;;;;2065260;28;20252;-59
2022/06/26 03:49:28;;;;;;;6.43;5.90;;;;;;;;;;2065118;28;20204;-60
2022/06/26 03:50:33;;;;;;;7.15;6.25;;;;;;;;;;2065196;28;20243;-58
2022/06/26 03:51:36;;;;;;;6.85;6.25;;;;;;;;;;2064844;28;20186;-58
2022/06/26 03:52:38;;;;;;;7.05;6.05;;;;;;;;;;2064725;28;20177;-57
2022/06/26 03:53:43;;;;;;;7.00;6.40;;;;;;;;;;2056943;28;20188;-60
2022/06/26 03:54:49;;;;;;;6.60;5.88;;;;;;;;;;2049384;28;20205;-56
2022/06/26 03:55:53;;;;;;;6.38;5.88;;;;;;;;;;2057477;28;20190;-58
2022/06/26 03:56:56;;;;;;;5.90;5.50;;;;;;;;;;2065199;28;20821;-60
2022/06/26 03:58:01;;;;;;;6.95;6.25;;;;;;;;;;2064928;28;20678;-60
2022/06/26 03:59:05;;;;;;;6.05;5.55;;;;;;;;;;2056834;28;20206;-58
2022/06/26 04:00:09;;;;;;;6.32;5.93;;;;;;;;;;2050087;28;20207;-57
2022/06/26 04:01:16;;;;;;;6.13;5.63;;;;;;;;;;2065207;28;20170;-56
2022/06/26 04:02:20;;;;;;;7.35;6.68;;;;;;;;;;2064955;28;20186;-60
2022/06/26 04:03:22;;;;;;;6.88;6.18;;;;;;;;;;2064786;28;20229;-55
2022/06/26 04:04:22;;;;;;;6.82;6.32;;;;;;;;;;2064083;28;20264;-55
2022/06/26 04:05:24;;;;;;;7.20;6.50;;;;;;;;;;2064608;28;20737;-59
2022/06/26 04:06:29;;;;;;;7.22;6.50;;;;;;;;;;2064700;28;20614;-58
2022/06/26 04:07:32;;;;;;;7.32;6.68;;;;;;;;;;2063050;28;20228;-59
2022/06/26 04:08:47;;;;;;;6.90;6.35;;;;;;;;;;2064541;28;20264;-58
2022/06/26 04:09:48;;;;;;;6.95;6.55;;;;;;;;;;2056860;28;20193;-58
2022/06/26 04:10:54;;;;;;;7.22;6.60;;;;;;;;;;2057571;28;20179;-59
2022/06/26 04:12:01;;;;;;;6.90;6.40;;;;;;;;;;2057883;28;20751;-60
2022/06/26 04:13:07;;;;;;;7.28;6.53;;;;;;;;;;2057596;28;20158;-53
2022/06/26 04:14:11;;;;;;;6.53;6.03;;;;;;;;;;2048472;28;20906;-58
2022/06/26 04:15:11;;;;;;;7.75;6.45;;;;;;;;;;2048944;28;20202;-57
2022/06/26 04:16:14;;;;;;;7.75;6.75;;;;;;;;;;2049046;28;20170;-58
2022/06/26 04:17:18;;;;;;;7.65;6.95;;;;;;;;;;2049317;28;20179;-55
2022/06/26 04:18:28;;;;;;;7.43;6.75;;;;;;;;;;2052603;28;22148;-58
2022/06/26 04:19:29;;;;;;;8.20;6.82;;;;;;;;;;2056668;28;20185;-57
2022/06/26 04:20:32;;;;;;;7.72;7.10;;;;;;;;;;2049203;28;20190;-59
2022/06/26 04:21:34;;;;;;;8.32;7.55;;;;;;;;;;2049547;28;20575;-55
2022/06/26 04:22:40;;;;;;;8.10;7.35;;;;;;;;;;2056289;28;20619;-60
2022/06/26 04:23:44;;;;;;;8.13;7.50;;;;;;;;;;2064836;28;20185;-57
2022/06/26 04:24:52;;;;;;;8.18;7.43;;;;;;;;;;2056939;28;20595;-57
2022/06/26 04:25:54;;;;;;;8.35;7.75;;;;;;;;;;2064724;28;20725;-59
2022/06/26 04:26:57;;;;;;;8.23;7.45;;;;;;;;;;2056930;28;20691;-56
2022/06/26 04:28:00;;;;;;;7.60;7.07;;;;;;;;;;2056884;28;20616;-58
2022/06/26 04:29:05;;;;;;;8.10;7.40;;;;;;;;;;2064714;28;20198;-59
2022/06/26 04:30:10;;;;;;;8.27;7.40;;;;;;;;;;2057449;28;20245;-59
2022/06/26 04:31:12;;;;;;;7.32;6.78;;;;;;;;;;2057014;28;20200;-57
2022/06/26 04:32:13;;;;;;;7.53;6.95;;;;;;;;;;2056882;28;20178;-53
2022/06/26 04:33:16;;;;;;;7.88;7.25;;;;;;;;;;2056703;28;20202;-58
2022/06/26 04:34:17;;;;;;;7.18;6.68;;;;;;;;;;2055819;28;20224;-59
2022/06/26 04:35:17;;;;;;;7.03;6.43;;;;;;;;;;2056881;28;20170;-56
2022/06/26 04:36:18;;;;;;;8.60;8.00;;;;;;;;;;2056565;28;20193;-57
2022/06/26 04:37:18;;;;;;;8.02;7.22;;;;;;;;;;2065095;28;20176;-56
2022/06/26 04:38:19;;;;;;;7.88;7.28;;;;;;;;;;2057098;28;20173;-58
2022/06/26 04:39:19;;;;;;;8.43;7.88;;;;;;;;;;2057595;28;20174;-59
2022/06/26 04:40:23;;;;;;;7.88;7.28;;;;;;;;;;2067785;28;20244;-55
2022/06/26 04:41:34;;;;;;;9.48;8.60;;;;;;;;;;2059806;28;20174;-55
2022/06/26 04:42:35;;;;;;;7.95;7.25;;;;;;;;;;2061329;28;20431;-58
2022/06/26 04:43:37;;;;;;;8.48;7.68;;;;;;;;;;2059171;28;20193;-54
2022/06/26 04:44:38;;;;;;;11.43;8.30;;;;;;;;;;2065796;28;20193;-56
2022/06/26 04:45:38;;;;;;;7.82;7.32;;;;;;;;;;2066816;28;20197;-57
2022/06/26 04:46:39;;;;;;;8.43;7.70;;;;;;;;;;2067199;28;20177;-54
2022/06/26 04:47:40;;;;;;;9.13;8.35;;;;;;;;;;2066437;28;20587;-52
2022/06/26 04:48:46;;;;;;;10.43;8.48;;;;;;;;;;2066062;28;20669;-56
2022/06/26 04:49:49;;;;;;;8.70;8.07;;;;;;;;;;2066031;28;20632;-55
2022/06/26 04:50:49;;;;;;;9.40;8.50;;;;;;;;;;2056971;28;20179;-59
2022/06/26 04:51:52;;;;;;;8.52;7.72;;;;;;;;;;2064967;28;20678;-57
2022/06/26 04:53:06;;;;;;;9.38;8.43;;;;;;;;;;2058643;28;20589;-56
2022/06/26 04:54:08;;;;;;;9.35;8.45;;;;;;;;;;2055937;28;20197;-59
2022/06/26 04:55:10;;;;;;;9.30;8.60;;;;;;;;;;2057047;28;20206;-57
2022/06/26 04:56:14;;;;;;;9.30;8.50;;;;;;;;;;2057061;28;20174;-58
2022/06/26 04:57:32;;;;;;;8.73;8.05;;;;;;;;;;2064611;28;20308;-55
2022/06/26 04:58:33;;;;;;;9.30;8.40;;;;;;;;;;2056708;28;20276;-56
2022/06/26 04:59:34;;;;;;;9.25;8.45;;;;;;;;;;2056758;28;20236;-57
2022/06/26 05:00:37;;;;;;;8.80;8.13;;;;;;;;;;2064674;28;20169;-59
2022/06/26 05:01:46;;;;;;;9.70;8.70;;;;;;;;;;2064609;28;20183;-58
2022/06/26 05:02:54;;;;;;;9.43;8.52;;;;;;;;;;2057914;28;20675;-57
2022/06/26 05:04:11;;;;;;;9.23;8.52;;;;;;;;;;2050461;28;20217;-53
2022/06/26 05:05:17;;;;;;;9.32;8.55;;;;;;;;;;2053848;28;20147;-53
2022/06/26 05:06:26;;;;;;;10.00;9.20;;;;;;;;;;2066410;28;20165;-58
2022/06/26 05:07:46;;;;;;;10.07;9.10;;;;;;;;;;2058723;28;20237;-59
2022/06/26 05:08:46;;;;;;;11.18;10.00;;;;;;;;;;2065766;28;20211;-55
2022/06/26 05:09:47;;;;;;;10.32;9.40;;;;;;;;;;2057847;28;20182;-57
2022/06/26 05:10:47;;;;;;;9.63;8.90;;;;;;;;;;2057618;28;20174;-54
2022/06/26 05:11:48;;;;;;;10.27;9.35;;;;;;;;;;2057848;28;20174;-52
2022/06/26 05:12:49;;;;;;;11.15;10.07;;;;;;;;;;2051197;28;20249;-55
2022/06/26 05:14:08;;;;;;;9.48;8.70;;;;;;;;;;2057331;28;20253;-55
2022/06/26 05:15:11;;;;;;;10.25;9.45;;;;;;;;;;2059263;28;20182;-57
2022/06/26 05:16:16;;;;;;;10.90;9.90;;;;;;;;;;2065245;28;20165;-56
2022/06/26 05:17:17;;;;;;;11.68;10.52;;;;;;;;;;2065477;28;20225;-57
2022/06/26 05:18:17;;;;;;;10.93;10.13;;;;;;;;;;2065575;28;20165;-55
2022/06/26 05:19:18;;;;;;;11.32;10.23;;;;;;;;;;2066277;28;20205;-56
2022/06/26 05:20:18;;;;;;;11.70;10.60;;;;;;;;;;2065506;28;20669;-54
2022/06/26 05:21:19;;;;;;;11.27;10.38;;;;;;;;;;2057713;28;20197;-55
2022/06/26 05:22:19;;;;;;;11.23;10.23;;;;;;;;;;2056282;28;20190;-57
2022/06/26 05:23:20;;;;;;;12.00;10.88;;;;;;;;;;2065670;28;20204;-54
2022/06/26 05:24:33;;;;;;;11.15;10.25;;;;;;;;;;2063125;28;20181;-52
2022/06/26 05:25:34;;;;;;;11.45;10.45;;;;;;;;;;2049643;28;20175;-56
2022/06/26 05:26:34;;;;;;;11.57;10.57;;;;;;;;;;2057776;28;20234;-53
2022/06/26 05:27:34;;;;;;;10.90;9.88;;;;;;;;;;2073858;28;20231;-55
2022/06/26 05:28:35;;;;;;;11.02;10.20;;;;;;;;;;2064509;28;20209;-53
2022/06/26 05:29:35;;;;;;;10.95;10.00;;;;;;;;;;2048685;29;20214;-52
2022/06/26 05:30:36;;;;;;;11.13;10.18;;;;;;;;;;2064560;28;20189;-57
2022/06/26 05:31:38;;;;;;;10.25;9.43;;;;;;;;;;2064506;28;20182;-54
2022/06/26 05:32:39;;;;;;;9.65;8.85;;;;;;;;;;2056464;28;20186;-52
2022/06/26 05:33:43;;;;;;;9.27;8.57;;;;;;;;;;2057123;28;20294;-58
2022/06/26 05:34:45;;;;;;;8.80;8.00;;;;;;;;;;2048148;28;20328;-58
2022/06/26 05:35:47;;;;;;;9.80;8.90;;;;;;;;;;2056917;28;20170;-56
2022/06/26 05:36:47;;;;;;;8.82;8.10;;;;;;;;;;2064338;28;20659;-52
2022/06/26 05:37:48;;;;;;;9.25;8.55;;;;;;;;;;2064623;28;20201;-53
2022/06/26 05:38:48;;;;;;;8.73;8.13;;;;;;;;;;2064263;28;20713;-57
2022/06/26 05:39:48;;;;;;;8.18;7.47;;;;;;;;;;2064960;28;20195;-56
2022/06/26 05:40:53;;;;;;;8.27;7.57;;;;;;;;;;2065303;28;20170;-54
2022/06/26 05:41:54;;;;;;;7.78;7.07;;;;;;;;;;2064990;28;20607;-56
2022/06/26 05:42:56;;;;;;;7.60;6.82;;;;;;;;;;2064921;28;20189;-58
2022/06/26 05:43:58;;;;;;;7.65;7.00;;;;;;;;;;2064935;28;20177;-58
2022/06/26 05:45:01;;;;;;;6.93;6.30;;;;;;;;;;2064236;28;20180;-59
2022/06/26 05:46:01;;;;;;;7.30;6.60;;;;;;;;;;2066654;28;20176;-56
2022/06/26 05:47:21;;;;;;;6.90;6.30;;;;;;;;;;2066493;28;20161;-57
2022/06/26 05:48:40;;;;;;;6.18;5.78;;;;;;;;;;2066622;28;20240;-56
2022/06/26 05:49:51;;;;;;;6.28;5.75;;;;;;;;;;2066401;28;20642;-56
2022/06/26 05:51:15;;;;;;;6.32;5.88;;;;;;;;;;2063592;28;20333;-57
2022/06/26 05:52:28;;;;;;;6.55;6.05;;;;;;;;;;2062302;28;20181;-59
2022/06/26 05:53:47;;;;;;;7.97;6.13;;;;;;;;;;2065986;28;20177;-56
2022/06/26 05:55:03;;;;;;;6.38;5.97;;;;;;;;;;2066510;28;20173;-59
2022/06/26 05:56:13;;;;;;;6.72;6.13;;;;;;;;;;2066051;28;20173;-55
2022/06/26 05:57:31;;;;;;;6.00;5.22;;;;;;;;;;2067093;28;20170;-58
2022/06/26 05:58:50;;;;;;;5.45;5.05;;;;;;;;;;2066895;28;20201;-55
2022/06/26 06:00:14;;;;;;;5.78;5.28;;;;;;;;;;2057927;28;20290;-57
2022/06/26 06:01:25;;;;;;;5.40;5.10;;;;;;;;;;2066387;28;20248;-59
2022/06/26 06:02:35;;;;;;;5.13;4.82;;;;;;;;;;2059346;28;20261;-57
2022/06/26 06:03:35;;;;;;;4.60;4.20;;;;;;;;;;2066647;28;20705;-57
2022/06/26 06:04:35;;;;;;;5.20;4.90;;;;;;;;;;2057801;28;20182;-58
2022/06/26 06:05:38;;;;;;;5.10;4.57;;;;;;;;;;2050572;28;20223;-57
2022/06/26 06:06:38;;;;;;;4.35;4.05;;;;;;;;;;2058363;28;20209;-58
2022/06/26 06:07:40;;;;;;;4.47;4.07;;;;;;;;;;2074573;28;20204;-57
2022/06/26 06:08:41;;;;;;;4.25;4.05;;;;;;;;;;2066278;28;20292;-54
2022/06/26 06:09:41;;;;;;;4.85;4.25;;;;;;;;;;2066504;28;20198;-58
2022/06/26 06:10:45;;;;;;;3.95;3.75;;;;;;;;;;2065673;28;20662;-56
2022/06/26 06:11:48;;;;;;;5.43;4.38;;;;;;;;;;2042811;29;20243;-58
2022/06/26 06:12:51;;;;;;;4.43;4.13;;;;;;;;;;2051127;28;20186;-60
2022/06/26 06:13:51;;;;;;;4.43;4.03;;;;;;;;;;2058680;28;20179;-61
2022/06/26 06:14:52;;;;;;;4.47;4.18;;;;;;;;;;2058902;28;20611;-58
2022/06/26 06:15:53;;;;;;;4.90;4.55;;;;;;;;;;2058613;28;20170;-59
2022/06/26 06:16:54;;;;;;;3.97;3.75;;;;;;;;;;2065956;28;20260;-55
2022/06/26 06:17:54;;;;;;;3.67;3.47;;;;;;;;;;2058107;28;20555;-54
2022/06/26 06:18:57;;;;;;;3.78;3.47;;;;;;;;;;2057926;28;20216;-60
2022/06/26 06:20:03;;;;;;;3.10;2.90;;;;;;;;;;2056940;28;20702;-57